sensor_id;sensor_type;location;lat;lon;timestamp;P1;durP1;ratioP1;P2;durP2;ratioP2
75689;SDS011;64303;53.118;9.044;2023-08-24T00:00:19;8.38;;;7.40;;
75689;SDS011;64303;53.118;9.044;2023-08-24T00:03:06;9.68;;;5.50;;
75689;SDS011;64303;53.118;9.044;2023-08-24T00:05:33;10.55;;;7.15;;
75689;SDS011;64303;53.118;9.044;2023-08-24T00:08:02;8.77;;;4.88;;
75689;SDS011;64303;53.118;9.044;2023-08-24T00:10:29;9.20;;;4.93;;
75689;SDS011;64303;53.118;9.044;2023-08-24T00:12:57;7.32;;;5.80;;
75689;SDS011;64303;53.118;9.044;2023-08-24T00:15:24;9.02;;;7.22;;
75689;SDS011;64303;53.118;9.044;2023-08-24T00:17:50;7.55;;;6.13;;
75689;SDS011;64303;53.118;9.044;2023-08-24T00:20:17;10.40;;;8.77;;
75689;SDS011;64303;53.118;9.044;2023-08-24T00:22:45;9.27;;;7.57;;
75689;SDS011;64303;53.118;9.044;2023-08-24T00:25:12;8.20;;;4.05;;
75689;SDS011;64303;53.118;9.044;2023-08-24T00:27:39;9.52;;;5.88;;
75689;SDS011;64303;53.118;9.044;2023-08-24T00:30:07;8.95;;;5.80;;
75689;SDS011;64303;53.118;9.044;2023-08-24T00:32:35;10.77;;;9.45;;
75689;SDS011;64303;53.118;9.044;2023-08-24T00:35:02;8.40;;;5.97;;
75689;SDS011;64303;53.118;9.044;2023-08-24T00:37:29;9.00;;;5.60;;
75689;SDS011;64303;53.118;9.044;2023-08-24T00:39:56;8.43;;;5.40;;
75689;SDS011;64303;53.118;9.044;2023-08-24T00:42:22;6.63;;;4.68;;
75689;SDS011;64303;53.118;9.044;2023-08-24T00:44:50;6.00;;;3.70;;
75689;SDS011;64303;53.118;9.044;2023-08-24T00:47:18;7.97;;;5.43;;
75689;SDS011;64303;53.118;9.044;2023-08-24T00:49:45;6.95;;;4.82;;
75689;SDS011;64303;53.118;9.044;2023-08-24T00:52:12;10.02;;;4.75;;
75689;SDS011;64303;53.118;9.044;2023-08-24T00:54:39;6.70;;;3.92;;
75689;SDS011;64303;53.118;9.044;2023-08-24T00:57:05;6.72;;;4.07;;
75689;SDS011;64303;53.118;9.044;2023-08-24T00:59:32;6.32;;;4.00;;
75689;SDS011;64303;53.118;9.044;2023-08-24T01:02:00;8.27;;;7.57;;
75689;SDS011;64303;53.118;9.044;2023-08-24T01:04:30;4.50;;;3.42;;
75689;SDS011;64303;53.118;9.044;2023-08-24T01:06:57;5.32;;;3.28;;
75689;SDS011;64303;53.118;9.044;2023-08-24T01:09:24;6.15;;;4.38;;
75689;SDS011;64303;53.118;9.044;2023-08-24T01:11:54;6.68;;;3.88;;
75689;SDS011;64303;53.118;9.044;2023-08-24T01:14:28;6.18;;;3.13;;
75689;SDS011;64303;53.118;9.044;2023-08-24T01:16:58;4.30;;;3.78;;
75689;SDS011;64303;53.118;9.044;2023-08-24T01:19:34;5.70;;;3.35;;
75689;SDS011;64303;53.118;9.044;2023-08-24T01:22:04;5.82;;;4.32;;
75689;SDS011;64303;53.118;9.044;2023-08-24T01:24:35;6.82;;;4.40;;
75689;SDS011;64303;53.118;9.044;2023-08-24T01:27:06;6.43;;;4.45;;
75689;SDS011;64303;53.118;9.044;2023-08-24T01:29:33;5.97;;;5.15;;
75689;SDS011;64303;53.118;9.044;2023-08-24T01:32:00;7.07;;;6.38;;
75689;SDS011;64303;53.118;9.044;2023-08-24T01:34:26;7.63;;;4.80;;
75689;SDS011;64303;53.118;9.044;2023-08-24T01:36:53;7.88;;;5.38;;
75689;SDS011;64303;53.118;9.044;2023-08-24T01:39:21;6.80;;;5.10;;
75689;SDS011;64303;53.118;9.044;2023-08-24T01:44:22;6.93;;;6.18;;
75689;SDS011;64303;53.118;9.044;2023-08-24T01:46:49;5.47;;;3.67;;
75689;SDS011;64303;53.118;9.044;2023-08-24T01:49:18;4.90;;;3.17;;
75689;SDS011;64303;53.118;9.044;2023-08-24T01:51:46;5.20;;;4.40;;
75689;SDS011;64303;53.118;9.044;2023-08-24T01:54:13;5.35;;;4.57;;
75689;SDS011;64303;53.118;9.044;2023-08-24T01:56:39;4.43;;;3.55;;
75689;SDS011;64303;53.118;9.044;2023-08-24T01:59:06;7.03;;;6.45;;
75689;SDS011;64303;53.118;9.044;2023-08-24T02:01:35;7.10;;;6.50;;
75689;SDS011;64303;53.118;9.044;2023-08-24T02:04:01;5.63;;;4.35;;
75689;SDS011;64303;53.118;9.044;2023-08-24T02:06:28;6.32;;;3.97;;
75689;SDS011;64303;53.118;9.044;2023-08-24T02:08:55;6.97;;;4.72;;
75689;SDS011;64303;53.118;9.044;2023-08-24T02:11:21;6.18;;;3.53;;
75689;SDS011;64303;53.118;9.044;2023-08-24T02:13:48;6.70;;;4.38;;
75689;SDS011;64303;53.118;9.044;2023-08-24T02:16:15;4.40;;;3.75;;
75689;SDS011;64303;53.118;9.044;2023-08-24T02:18:43;3.63;;;3.05;;
75689;SDS011;64303;53.118;9.044;2023-08-24T02:21:10;5.75;;;5.25;;
75689;SDS011;64303;53.118;9.044;2023-08-24T02:23:37;5.30;;;4.20;;
75689;SDS011;64303;53.118;9.044;2023-08-24T02:26:04;5.60;;;4.55;;
75689;SDS011;64303;53.118;9.044;2023-08-24T02:28:32;5.57;;;4.72;;
75689;SDS011;64303;53.118;9.044;2023-08-24T02:30:59;5.53;;;3.75;;
75689;SDS011;64303;53.118;9.044;2023-08-24T02:33:26;4.85;;;3.65;;
75689;SDS011;64303;53.118;9.044;2023-08-24T02:35:54;5.63;;;3.38;;
75689;SDS011;64303;53.118;9.044;2023-08-24T02:38:21;6.40;;;5.70;;
75689;SDS011;64303;53.118;9.044;2023-08-24T02:40:59;5.40;;;4.05;;
75689;SDS011;64303;53.118;9.044;2023-08-24T02:43:26;6.40;;;3.78;;
75689;SDS011;64303;53.118;9.044;2023-08-24T02:45:53;6.20;;;3.53;;
75689;SDS011;64303;53.118;9.044;2023-08-24T02:48:21;6.47;;;5.95;;
75689;SDS011;64303;53.118;9.044;2023-08-24T02:53:37;7.30;;;6.60;;
75689;SDS011;64303;53.118;9.044;2023-08-24T02:56:03;11.75;;;4.57;;
75689;SDS011;64303;53.118;9.044;2023-08-24T02:58:30;7.20;;;6.25;;
75689;SDS011;64303;53.118;9.044;2023-08-24T03:00:58;6.90;;;6.30;;
75689;SDS011;64303;53.118;9.044;2023-08-24T03:03:24;6.75;;;6.05;;
75689;SDS011;64303;53.118;9.044;2023-08-24T03:05:54;5.57;;;5.07;;
75689;SDS011;64303;53.118;9.044;2023-08-24T03:08:23;5.75;;;5.15;;
75689;SDS011;64303;53.118;9.044;2023-08-24T03:10:49;4.22;;;3.08;;
75689;SDS011;64303;53.118;9.044;2023-08-24T03:13:16;5.78;;;3.63;;
75689;SDS011;64303;53.118;9.044;2023-08-24T03:15:43;4.13;;;2.97;;
75689;SDS011;64303;53.118;9.044;2023-08-24T03:18:11;6.18;;;5.57;;
75689;SDS011;64303;53.118;9.044;2023-08-24T03:20:38;6.95;;;6.30;;
75689;SDS011;64303;53.118;9.044;2023-08-24T03:23:04;8.63;;;7.40;;
75689;SDS011;64303;53.118;9.044;2023-08-24T03:25:34;6.15;;;4.10;;
75689;SDS011;64303;53.118;9.044;2023-08-24T03:28:02;7.90;;;7.10;;
75689;SDS011;64303;53.118;9.044;2023-08-24T03:30:30;6.78;;;5.18;;
75689;SDS011;64303;53.118;9.044;2023-08-24T03:32:56;6.60;;;4.63;;
75689;SDS011;64303;53.118;9.044;2023-08-24T03:35:24;7.80;;;4.95;;
75689;SDS011;64303;53.118;9.044;2023-08-24T03:37:51;5.85;;;4.85;;
75689;SDS011;64303;53.118;9.044;2023-08-24T03:40:17;10.38;;;4.90;;
75689;SDS011;64303;53.118;9.044;2023-08-24T03:42:45;6.55;;;5.25;;
75689;SDS011;64303;53.118;9.044;2023-08-24T03:45:12;6.75;;;4.60;;
75689;SDS011;64303;53.118;9.044;2023-08-24T03:47:39;5.75;;;5.18;;
75689;SDS011;64303;53.118;9.044;2023-08-24T03:50:06;5.57;;;4.30;;
75689;SDS011;64303;53.118;9.044;2023-08-24T03:52:34;7.47;;;5.97;;
75689;SDS011;64303;53.118;9.044;2023-08-24T03:55:00;9.85;;;8.85;;
75689;SDS011;64303;53.118;9.044;2023-08-24T03:57:27;9.23;;;8.35;;
75689;SDS011;64303;53.118;9.044;2023-08-24T03:59:55;7.70;;;6.43;;
75689;SDS011;64303;53.118;9.044;2023-08-24T04:02:22;6.28;;;5.07;;
75689;SDS011;64303;53.118;9.044;2023-08-24T04:04:49;8.23;;;5.03;;
75689;SDS011;64303;53.118;9.044;2023-08-24T04:07:16;6.43;;;4.03;;
75689;SDS011;64303;53.118;9.044;2023-08-24T04:09:43;8.73;;;4.63;;
75689;SDS011;64303;53.118;9.044;2023-08-24T04:12:11;7.88;;;5.60;;
75689;SDS011;64303;53.118;9.044;2023-08-24T04:14:37;7.03;;;6.38;;
75689;SDS011;64303;53.118;9.044;2023-08-24T04:17:05;8.27;;;5.13;;
75689;SDS011;64303;53.118;9.044;2023-08-24T04:19:32;7.25;;;5.38;;
75689;SDS011;64303;53.118;9.044;2023-08-24T04:21:59;6.38;;;4.85;;
75689;SDS011;64303;53.118;9.044;2023-08-24T04:24:26;6.70;;;5.53;;
75689;SDS011;64303;53.118;9.044;2023-08-24T04:26:53;8.13;;;7.32;;
75689;SDS011;64303;53.118;9.044;2023-08-24T04:29:19;6.22;;;4.65;;
75689;SDS011;64303;53.118;9.044;2023-08-24T04:31:46;6.97;;;4.53;;
75689;SDS011;64303;53.118;9.044;2023-08-24T04:34:14;6.53;;;4.97;;
75689;SDS011;64303;53.118;9.044;2023-08-24T04:36:40;5.57;;;3.05;;
75689;SDS011;64303;53.118;9.044;2023-08-24T04:39:07;8.27;;;7.18;;
75689;SDS011;64303;53.118;9.044;2023-08-24T04:41:34;5.25;;;3.90;;
75689;SDS011;64303;53.118;9.044;2023-08-24T04:44:00;5.00;;;2.97;;
75689;SDS011;64303;53.118;9.044;2023-08-24T04:46:27;5.80;;;3.65;;
75689;SDS011;64303;53.118;9.044;2023-08-24T04:48:53;5.47;;;4.03;;
75689;SDS011;64303;53.118;9.044;2023-08-24T04:51:22;6.15;;;4.60;;
75689;SDS011;64303;53.118;9.044;2023-08-24T04:53:48;4.80;;;3.50;;
75689;SDS011;64303;53.118;9.044;2023-08-24T04:56:15;6.00;;;4.13;;
75689;SDS011;64303;53.118;9.044;2023-08-24T04:58:51;5.97;;;4.05;;
75689;SDS011;64303;53.118;9.044;2023-08-24T05:01:19;8.43;;;5.55;;
75689;SDS011;64303;53.118;9.044;2023-08-24T05:03:46;6.30;;;5.28;;
75689;SDS011;64303;53.118;9.044;2023-08-24T05:06:13;10.82;;;6.20;;
75689;SDS011;64303;53.118;9.044;2023-08-24T05:08:41;7.68;;;4.90;;
75689;SDS011;64303;53.118;9.044;2023-08-24T05:11:11;8.98;;;8.15;;
75689;SDS011;64303;53.118;9.044;2023-08-24T05:13:39;7.63;;;5.40;;
75689;SDS011;64303;53.118;9.044;2023-08-24T05:16:05;9.05;;;6.22;;
75689;SDS011;64303;53.118;9.044;2023-08-24T05:18:33;7.35;;;5.95;;
75689;SDS011;64303;53.118;9.044;2023-08-24T05:21:00;8.77;;;5.45;;
75689;SDS011;64303;53.118;9.044;2023-08-24T05:23:27;8.82;;;6.78;;
75689;SDS011;64303;53.118;9.044;2023-08-24T05:25:55;9.90;;;5.72;;
75689;SDS011;64303;53.118;9.044;2023-08-24T05:28:22;7.82;;;6.50;;
75689;SDS011;64303;53.118;9.044;2023-08-24T05:30:50;8.23;;;6.45;;
75689;SDS011;64303;53.118;9.044;2023-08-24T05:33:17;8.10;;;5.75;;
75689;SDS011;64303;53.118;9.044;2023-08-24T05:35:44;10.95;;;8.02;;
75689;SDS011;64303;53.118;9.044;2023-08-24T05:38:10;10.55;;;8.57;;
75689;SDS011;64303;53.118;9.044;2023-08-24T05:40:37;10.07;;;7.32;;
75689;SDS011;64303;53.118;9.044;2023-08-24T05:43:05;9.50;;;7.28;;
75689;SDS011;64303;53.118;9.044;2023-08-24T05:47:59;9.80;;;6.53;;
75689;SDS011;64303;53.118;9.044;2023-08-24T05:50:25;11.60;;;6.35;;
75689;SDS011;64303;53.118;9.044;2023-08-24T05:52:52;13.60;;;7.60;;
75689;SDS011;64303;53.118;9.044;2023-08-24T05:55:18;9.07;;;6.88;;
75689;SDS011;64303;53.118;9.044;2023-08-24T05:57:45;11.45;;;10.35;;
75689;SDS011;64303;53.118;9.044;2023-08-24T06:00:14;10.02;;;7.40;;
75689;SDS011;64303;53.118;9.044;2023-08-24T06:02:41;8.85;;;6.78;;
75689;SDS011;64303;53.118;9.044;2023-08-24T06:05:08;8.15;;;6.25;;
75689;SDS011;64303;53.118;9.044;2023-08-24T06:07:36;9.02;;;6.13;;
75689;SDS011;64303;53.118;9.044;2023-08-24T06:10:03;9.82;;;5.72;;
75689;SDS011;64303;53.118;9.044;2023-08-24T06:12:31;12.18;;;8.07;;
75689;SDS011;64303;53.118;9.044;2023-08-24T06:14:57;9.23;;;6.22;;
75689;SDS011;64303;53.118;9.044;2023-08-24T06:17:28;8.88;;;5.90;;
75689;SDS011;64303;53.118;9.044;2023-08-24T06:19:55;9.00;;;8.05;;
75689;SDS011;64303;53.118;9.044;2023-08-24T06:22:22;10.88;;;7.20;;
75689;SDS011;64303;53.118;9.044;2023-08-24T06:24:48;10.60;;;8.20;;
75689;SDS011;64303;53.118;9.044;2023-08-24T06:27:15;11.13;;;8.32;;
75689;SDS011;64303;53.118;9.044;2023-08-24T06:29:42;11.75;;;9.43;;
75689;SDS011;64303;53.118;9.044;2023-08-24T06:32:09;8.88;;;6.75;;
75689;SDS011;64303;53.118;9.044;2023-08-24T06:34:37;9.07;;;6.18;;
75689;SDS011;64303;53.118;9.044;2023-08-24T06:37:04;9.27;;;5.18;;
75689;SDS011;64303;53.118;9.044;2023-08-24T06:39:30;9.35;;;6.80;;
75689;SDS011;64303;53.118;9.044;2023-08-24T06:41:57;9.20;;;6.97;;
75689;SDS011;64303;53.118;9.044;2023-08-24T06:44:25;8.35;;;5.60;;
75689;SDS011;64303;53.118;9.044;2023-08-24T06:46:51;9.25;;;6.10;;
75689;SDS011;64303;53.118;9.044;2023-08-24T06:49:18;13.50;;;6.97;;
75689;SDS011;64303;53.118;9.044;2023-08-24T06:51:46;12.55;;;6.85;;
75689;SDS011;64303;53.118;9.044;2023-08-24T06:54:13;9.75;;;5.00;;
75689;SDS011;64303;53.118;9.044;2023-08-24T06:56:41;9.93;;;5.45;;
75689;SDS011;64303;53.118;9.044;2023-08-24T06:59:08;10.73;;;6.45;;
75689;SDS011;64303;53.118;9.044;2023-08-24T07:01:38;10.60;;;6.22;;
75689;SDS011;64303;53.118;9.044;2023-08-24T07:04:05;10.30;;;4.97;;
75689;SDS011;64303;53.118;9.044;2023-08-24T07:06:32;13.90;;;5.13;;
75689;SDS011;64303;53.118;9.044;2023-08-24T07:09:00;8.63;;;5.35;;
75689;SDS011;64303;53.118;9.044;2023-08-24T07:11:31;8.20;;;5.00;;
75689;SDS011;64303;53.118;9.044;2023-08-24T07:13:58;5.75;;;4.10;;
75689;SDS011;64303;53.118;9.044;2023-08-24T07:16:25;6.03;;;4.10;;
75689;SDS011;64303;53.118;9.044;2023-08-24T07:18:51;7.75;;;5.75;;
75689;SDS011;64303;53.118;9.044;2023-08-24T07:21:18;9.32;;;4.18;;
75689;SDS011;64303;53.118;9.044;2023-08-24T07:23:45;8.30;;;4.95;;
75689;SDS011;64303;53.118;9.044;2023-08-24T07:26:13;11.70;;;5.45;;
75689;SDS011;64303;53.118;9.044;2023-08-24T07:28:39;6.18;;;4.47;;
75689;SDS011;64303;53.118;9.044;2023-08-24T07:31:07;6.03;;;4.13;;
75689;SDS011;64303;53.118;9.044;2023-08-24T07:33:33;7.55;;;3.95;;
75689;SDS011;64303;53.118;9.044;2023-08-24T07:36:00;5.78;;;4.07;;
75689;SDS011;64303;53.118;9.044;2023-08-24T07:38:29;8.30;;;2.72;;
75689;SDS011;64303;53.118;9.044;2023-08-24T07:40:56;4.57;;;2.25;;
75689;SDS011;64303;53.118;9.044;2023-08-24T07:43:24;6.10;;;2.25;;
75689;SDS011;64303;53.118;9.044;2023-08-24T07:45:51;4.10;;;1.70;;
75689;SDS011;64303;53.118;9.044;2023-08-24T07:48:18;7.20;;;2.25;;
75689;SDS011;64303;53.118;9.044;2023-08-24T07:50:46;4.80;;;2.63;;
75689;SDS011;64303;53.118;9.044;2023-08-24T07:53:12;3.60;;;2.00;;
75689;SDS011;64303;53.118;9.044;2023-08-24T07:55:39;5.35;;;2.20;;
75689;SDS011;64303;53.118;9.044;2023-08-24T07:58:06;6.35;;;3.33;;
75689;SDS011;64303;53.118;9.044;2023-08-24T08:00:34;5.78;;;3.17;;
75689;SDS011;64303;53.118;9.044;2023-08-24T08:03:01;6.85;;;3.28;;
75689;SDS011;64303;53.118;9.044;2023-08-24T08:05:28;7.50;;;2.95;;
75689;SDS011;64303;53.118;9.044;2023-08-24T08:07:54;4.72;;;3.15;;
75689;SDS011;64303;53.118;9.044;2023-08-24T08:10:21;7.55;;;3.83;;
75689;SDS011;64303;53.118;9.044;2023-08-24T08:12:47;5.82;;;3.33;;
75689;SDS011;64303;53.118;9.044;2023-08-24T08:15:14;7.43;;;2.08;;
75689;SDS011;64303;53.118;9.044;2023-08-24T08:17:42;4.88;;;2.42;;
75689;SDS011;64303;53.118;9.044;2023-08-24T08:20:09;4.30;;;2.22;;
75689;SDS011;64303;53.118;9.044;2023-08-24T08:22:37;4.22;;;2.15;;
75689;SDS011;64303;53.118;9.044;2023-08-24T08:25:04;4.30;;;1.92;;
75689;SDS011;64303;53.118;9.044;2023-08-24T08:27:32;5.88;;;1.88;;
75689;SDS011;64303;53.118;9.044;2023-08-24T08:29:59;6.50;;;2.33;;
75689;SDS011;64303;53.118;9.044;2023-08-24T08:32:25;5.63;;;2.53;;
75689;SDS011;64303;53.118;9.044;2023-08-24T08:34:54;5.63;;;2.15;;
75689;SDS011;64303;53.118;9.044;2023-08-24T08:37:22;4.07;;;2.35;;
75689;SDS011;64303;53.118;9.044;2023-08-24T08:39:49;5.28;;;2.53;;
75689;SDS011;64303;53.118;9.044;2023-08-24T08:42:15;5.85;;;2.72;;
75689;SDS011;64303;53.118;9.044;2023-08-24T08:44:43;8.60;;;2.08;;
75689;SDS011;64303;53.118;9.044;2023-08-24T08:47:11;4.70;;;2.50;;
75689;SDS011;64303;53.118;9.044;2023-08-24T08:49:38;5.43;;;2.03;;
75689;SDS011;64303;53.118;9.044;2023-08-24T08:52:07;5.88;;;2.35;;
75689;SDS011;64303;53.118;9.044;2023-08-24T08:54:33;5.32;;;3.40;;
75689;SDS011;64303;53.118;9.044;2023-08-24T08:57:00;5.30;;;2.47;;
75689;SDS011;64303;53.118;9.044;2023-08-24T08:59:28;6.90;;;2.30;;
75689;SDS011;64303;53.118;9.044;2023-08-24T09:01:55;8.50;;;2.28;;
75689;SDS011;64303;53.118;9.044;2023-08-24T09:04:23;6.10;;;2.42;;
75689;SDS011;64303;53.118;9.044;2023-08-24T09:06:50;6.22;;;3.28;;
75689;SDS011;64303;53.118;9.044;2023-08-24T09:09:18;5.72;;;2.92;;
75689;SDS011;64303;53.118;9.044;2023-08-24T09:11:44;6.07;;;3.33;;
75689;SDS011;64303;53.118;9.044;2023-08-24T09:14:13;5.57;;;2.60;;
75689;SDS011;64303;53.118;9.044;2023-08-24T09:16:40;5.85;;;2.40;;
75689;SDS011;64303;53.118;9.044;2023-08-24T09:19:10;6.40;;;1.95;;
75689;SDS011;64303;53.118;9.044;2023-08-24T09:21:38;5.90;;;2.03;;
75689;SDS011;64303;53.118;9.044;2023-08-24T09:24:07;11.18;;;3.58;;
75689;SDS011;64303;53.118;9.044;2023-08-24T09:26:36;6.72;;;2.92;;
75689;SDS011;64303;53.118;9.044;2023-08-24T09:31:38;4.28;;;1.83;;
75689;SDS011;64303;53.118;9.044;2023-08-24T09:34:06;6.05;;;3.65;;
75689;SDS011;64303;53.118;9.044;2023-08-24T09:36:33;7.18;;;3.05;;
75689;SDS011;64303;53.118;9.044;2023-08-24T09:39:00;6.78;;;2.83;;
75689;SDS011;64303;53.118;9.044;2023-08-24T09:41:40;5.35;;;2.97;;
75689;SDS011;64303;53.118;9.044;2023-08-24T09:44:08;5.32;;;2.15;;
75689;SDS011;64303;53.118;9.044;2023-08-24T09:46:36;4.57;;;2.13;;
75689;SDS011;64303;53.118;9.044;2023-08-24T09:49:04;4.28;;;2.42;;
75689;SDS011;64303;53.118;9.044;2023-08-24T09:51:31;5.68;;;2.60;;
75689;SDS011;64303;53.118;9.044;2023-08-24T09:53:59;6.05;;;2.10;;
75689;SDS011;64303;53.118;9.044;2023-08-24T09:56:30;5.28;;;3.40;;
75689;SDS011;64303;53.118;9.044;2023-08-24T09:59:00;5.38;;;2.60;;
75689;SDS011;64303;53.118;9.044;2023-08-24T10:01:34;10.43;;;2.97;;
75689;SDS011;64303;53.118;9.044;2023-08-24T10:04:02;8.10;;;3.03;;
75689;SDS011;64303;53.118;9.044;2023-08-24T10:06:31;4.70;;;2.42;;
75689;SDS011;64303;53.118;9.044;2023-08-24T10:09:02;5.40;;;2.08;;
75689;SDS011;64303;53.118;9.044;2023-08-24T10:11:34;7.20;;;3.58;;
75689;SDS011;64303;53.118;9.044;2023-08-24T10:14:07;7.03;;;2.13;;
75689;SDS011;64303;53.118;9.044;2023-08-24T10:16:35;4.88;;;2.10;;
75689;SDS011;64303;53.118;9.044;2023-08-24T10:19:02;7.22;;;2.13;;
75689;SDS011;64303;53.118;9.044;2023-08-24T10:21:29;4.05;;;1.65;;
75689;SDS011;64303;53.118;9.044;2023-08-24T10:23:55;6.68;;;2.38;;
75689;SDS011;64303;53.118;9.044;2023-08-24T10:26:23;5.03;;;2.40;;
75689;SDS011;64303;53.118;9.044;2023-08-24T10:31:17;5.10;;;2.17;;
75689;SDS011;64303;53.118;9.044;2023-08-24T10:33:45;7.13;;;2.38;;
75689;SDS011;64303;53.118;9.044;2023-08-24T10:36:12;4.70;;;2.00;;
75689;SDS011;64303;53.118;9.044;2023-08-24T10:38:40;8.60;;;3.10;;
75689;SDS011;64303;53.118;9.044;2023-08-24T10:41:08;8.77;;;2.33;;
75689;SDS011;64303;53.118;9.044;2023-08-24T10:43:38;4.88;;;1.38;;
75689;SDS011;64303;53.118;9.044;2023-08-24T10:51:26;5.13;;;2.00;;
75689;SDS011;64303;53.118;9.044;2023-08-24T10:53:56;4.28;;;2.22;;
75689;SDS011;64303;53.118;9.044;2023-08-24T10:56:29;4.10;;;2.03;;
75689;SDS011;64303;53.118;9.044;2023-08-24T10:59:10;4.88;;;1.95;;
75689;SDS011;64303;53.118;9.044;2023-08-24T11:01:38;5.15;;;2.15;;
75689;SDS011;64303;53.118;9.044;2023-08-24T11:04:07;4.60;;;1.77;;
75689;SDS011;64303;53.118;9.044;2023-08-24T11:06:34;6.53;;;2.53;;
75689;SDS011;64303;53.118;9.044;2023-08-24T11:09:05;5.63;;;2.53;;
75689;SDS011;64303;53.118;9.044;2023-08-24T11:11:35;4.70;;;1.50;;
75689;SDS011;64303;53.118;9.044;2023-08-24T11:16:41;9.00;;;2.50;;
75689;SDS011;64303;53.118;9.044;2023-08-24T11:19:10;7.47;;;2.67;;
75689;SDS011;64303;53.118;9.044;2023-08-24T11:21:37;3.05;;;1.98;;
75689;SDS011;64303;53.118;9.044;2023-08-24T11:24:05;5.22;;;2.20;;
75689;SDS011;64303;53.118;9.044;2023-08-24T11:26:31;4.93;;;2.05;;
75689;SDS011;64303;53.118;9.044;2023-08-24T11:28:58;4.43;;;2.47;;
75689;SDS011;64303;53.118;9.044;2023-08-24T11:31:25;4.45;;;2.58;;
75689;SDS011;64303;53.118;9.044;2023-08-24T11:33:53;5.53;;;2.10;;
75689;SDS011;64303;53.118;9.044;2023-08-24T11:36:22;4.20;;;2.20;;
75689;SDS011;64303;53.118;9.044;2023-08-24T11:38:50;7.97;;;2.38;;
75689;SDS011;64303;53.118;9.044;2023-08-24T11:41:19;8.80;;;2.72;;
75689;SDS011;64303;53.118;9.044;2023-08-24T11:43:47;5.20;;;1.88;;
75689;SDS011;64303;53.118;9.044;2023-08-24T11:46:16;6.72;;;3.30;;
75689;SDS011;64303;53.118;9.044;2023-08-24T11:48:43;3.70;;;1.90;;
75689;SDS011;64303;53.118;9.044;2023-08-24T11:51:11;3.55;;;2.08;;
75689;SDS011;64303;53.118;9.044;2023-08-24T11:53:41;4.40;;;1.35;;
75689;SDS011;64303;53.118;9.044;2023-08-24T11:56:08;9.55;;;1.55;;
75689;SDS011;64303;53.118;9.044;2023-08-24T11:58:37;4.22;;;1.85;;
75689;SDS011;64303;53.118;9.044;2023-08-24T12:01:03;8.82;;;2.63;;
75689;SDS011;64303;53.118;9.044;2023-08-24T12:03:30;6.20;;;1.77;;
75689;SDS011;64303;53.118;9.044;2023-08-24T12:05:58;6.10;;;3.80;;
75689;SDS011;64303;53.118;9.044;2023-08-24T12:08:25;4.70;;;1.65;;
75689;SDS011;64303;53.118;9.044;2023-08-24T12:10:53;7.10;;;1.98;;
75689;SDS011;64303;53.118;9.044;2023-08-24T12:13:21;4.28;;;1.77;;
75689;SDS011;64303;53.118;9.044;2023-08-24T12:15:48;6.05;;;2.03;;
75689;SDS011;64303;53.118;9.044;2023-08-24T12:18:17;4.88;;;2.30;;
75689;SDS011;64303;53.118;9.044;2023-08-24T12:20:44;6.70;;;1.60;;
75689;SDS011;64303;53.118;9.044;2023-08-24T12:23:11;3.25;;;2.00;;
75689;SDS011;64303;53.118;9.044;2023-08-24T12:25:38;4.32;;;2.35;;
75689;SDS011;64303;53.118;9.044;2023-08-24T12:28:09;4.68;;;1.92;;
75689;SDS011;64303;53.118;9.044;2023-08-24T12:30:44;4.20;;;1.77;;
75689;SDS011;64303;53.118;9.044;2023-08-24T12:33:20;3.55;;;1.98;;
75689;SDS011;64303;53.118;9.044;2023-08-24T12:35:47;3.30;;;2.33;;
75689;SDS011;64303;53.118;9.044;2023-08-24T12:38:14;6.57;;;1.52;;
75689;SDS011;64303;53.118;9.044;2023-08-24T12:40:40;4.35;;;2.65;;
75689;SDS011;64303;53.118;9.044;2023-08-24T12:43:07;5.72;;;1.60;;
75689;SDS011;64303;53.118;9.044;2023-08-24T12:45:35;6.88;;;1.10;;
75689;SDS011;64303;53.118;9.044;2023-08-24T12:48:03;3.83;;;1.75;;
75689;SDS011;64303;53.118;9.044;2023-08-24T12:52:56;3.00;;;1.30;;
75689;SDS011;64303;53.118;9.044;2023-08-24T12:55:25;5.53;;;1.45;;
75689;SDS011;64303;53.118;9.044;2023-08-24T12:57:52;4.47;;;2.05;;
75689;SDS011;64303;53.118;9.044;2023-08-24T13:00:19;4.78;;;2.00;;
75689;SDS011;64303;53.118;9.044;2023-08-24T13:02:47;4.35;;;2.63;;
75689;SDS011;64303;53.118;9.044;2023-08-24T13:05:14;3.03;;;1.00;;
75689;SDS011;64303;53.118;9.044;2023-08-24T13:07:41;4.95;;;1.23;;
75689;SDS011;64303;53.118;9.044;2023-08-24T13:10:08;5.03;;;1.73;;
75689;SDS011;64303;53.118;9.044;2023-08-24T13:12:35;6.82;;;1.35;;
75689;SDS011;64303;53.118;9.044;2023-08-24T13:15:02;4.35;;;1.40;;
75689;SDS011;64303;53.118;9.044;2023-08-24T13:17:29;5.68;;;1.75;;
75689;SDS011;64303;53.118;9.044;2023-08-24T13:19:57;6.18;;;1.98;;
75689;SDS011;64303;53.118;9.044;2023-08-24T13:22:24;3.80;;;2.58;;
75689;SDS011;64303;53.118;9.044;2023-08-24T13:24:50;4.03;;;1.20;;
75689;SDS011;64303;53.118;9.044;2023-08-24T13:27:17;3.95;;;1.45;;
75689;SDS011;64303;53.118;9.044;2023-08-24T13:32:11;4.60;;;1.20;;
75689;SDS011;64303;53.118;9.044;2023-08-24T13:34:37;3.47;;;1.40;;
75689;SDS011;64303;53.118;9.044;2023-08-24T13:37:06;4.47;;;1.08;;
75689;SDS011;64303;53.118;9.044;2023-08-24T13:39:32;3.40;;;1.42;;
75689;SDS011;64303;53.118;9.044;2023-08-24T13:41:59;3.40;;;1.73;;
75689;SDS011;64303;53.118;9.044;2023-08-24T13:44:26;4.72;;;1.55;;
75689;SDS011;64303;53.118;9.044;2023-08-24T13:46:53;3.47;;;1.45;;
75689;SDS011;64303;53.118;9.044;2023-08-24T13:49:19;5.07;;;1.33;;
75689;SDS011;64303;53.118;9.044;2023-08-24T13:51:46;4.05;;;1.27;;
75689;SDS011;64303;53.118;9.044;2023-08-24T13:54:14;3.72;;;1.67;;
75689;SDS011;64303;53.118;9.044;2023-08-24T13:56:42;5.28;;;1.70;;
75689;SDS011;64303;53.118;9.044;2023-08-24T13:59:08;3.15;;;1.77;;
75689;SDS011;64303;53.118;9.044;2023-08-24T14:01:35;3.55;;;2.25;;
75689;SDS011;64303;53.118;9.044;2023-08-24T14:04:02;3.10;;;1.67;;
75689;SDS011;64303;53.118;9.044;2023-08-24T14:06:29;3.55;;;1.40;;
75689;SDS011;64303;53.118;9.044;2023-08-24T14:08:56;2.92;;;1.73;;
75689;SDS011;64303;53.118;9.044;2023-08-24T14:11:24;4.00;;;1.42;;
75689;SDS011;64303;53.118;9.044;2023-08-24T14:13:50;3.53;;;1.58;;
75689;SDS011;64303;53.118;9.044;2023-08-24T14:16:17;3.97;;;1.38;;
75689;SDS011;64303;53.118;9.044;2023-08-24T14:18:44;3.40;;;1.27;;
75689;SDS011;64303;53.118;9.044;2023-08-24T14:21:11;2.63;;;1.15;;
75689;SDS011;64303;53.118;9.044;2023-08-24T14:23:39;4.55;;;1.42;;
75689;SDS011;64303;53.118;9.044;2023-08-24T14:26:07;3.92;;;1.85;;
75689;SDS011;64303;53.118;9.044;2023-08-24T14:28:49;3.40;;;1.88;;
75689;SDS011;64303;53.118;9.044;2023-08-24T14:31:16;2.97;;;1.33;;
75689;SDS011;64303;53.118;9.044;2023-08-24T14:33:43;4.18;;;1.65;;
75689;SDS011;64303;53.118;9.044;2023-08-24T14:36:10;3.08;;;1.25;;
75689;SDS011;64303;53.118;9.044;2023-08-24T14:38:38;2.83;;;1.67;;
75689;SDS011;64303;53.118;9.044;2023-08-24T14:41:05;4.80;;;1.38;;
75689;SDS011;64303;53.118;9.044;2023-08-24T14:43:32;2.53;;;1.27;;
75689;SDS011;64303;53.118;9.044;2023-08-24T14:46:00;3.10;;;2.00;;
75689;SDS011;64303;53.118;9.044;2023-08-24T14:48:27;3.22;;;1.25;;
75689;SDS011;64303;53.118;9.044;2023-08-24T14:50:54;3.92;;;1.70;;
75689;SDS011;64303;53.118;9.044;2023-08-24T14:53:21;4.07;;;3.20;;
75689;SDS011;64303;53.118;9.044;2023-08-24T14:55:48;4.22;;;1.95;;
75689;SDS011;64303;53.118;9.044;2023-08-24T14:58:15;3.50;;;0.98;;
75689;SDS011;64303;53.118;9.044;2023-08-24T15:00:42;5.30;;;1.20;;
75689;SDS011;64303;53.118;9.044;2023-08-24T15:03:12;4.32;;;1.70;;
75689;SDS011;64303;53.118;9.044;2023-08-24T15:05:42;2.97;;;1.02;;
75689;SDS011;64303;53.118;9.044;2023-08-24T15:08:09;2.95;;;1.52;;
75689;SDS011;64303;53.118;9.044;2023-08-24T15:10:36;6.93;;;2.33;;
75689;SDS011;64303;53.118;9.044;2023-08-24T15:13:03;3.72;;;2.05;;